Portada
METAR-TAF:

METAR-TAF

Aeroports :

Sakon Nakhon, Tailàndia

latitud: 17-11-42N, longitud: 104-07-08E, altitud: 161 m

Observació

L'informe es va fer fa 54 minuts, a les 07:00 UTC
Vent 9 kt del Est/Nord-Est, variant entre Nord/Nord-Est i Est
Temperatura 29°C
Humitat 48%
Pressió 1014 hPa
Visibilitat 10 km o més
Núvols disperses a una alçada de 4000 ft

METAR: VTUI 290700Z 06009KT 030V090 9999 SCT040 29/17 Q1014 NOSIG

Hora: 14:54 (07:54 UTC)

Pronòstic

L'informe es va fer fa 2 hores i 54 minuts, a les 05:00 UTC
Pronòstic vàlid del 29 a les 06 UTC al 30 a les 06 UTC
Vent 7 kt del Est/Nord-Est
Visibilitat 10 km o més
Escasses núvols a una alçada de 3000 ft

TAF: VTUI 290500Z 2906/3006 06007KT 9999 FEW030

Observacions i pronòstics meteorològics de més de 4000 aeroports (METAR i TAF).

Les estacions disponibles són els punts grocs i vermells al mapa.

Posi el ratolí al punt desitjat per veure el nom de l'estació.

Feu clic per veure les observacions i els pronòstics meteorològics.

Per canviar el mapa: feu clic els botons verds amb una creu de color negre per apropar; al botó verd amb un guió per allunyar la imatge; o en les fletxes verdes per a mapes adjacents.


METAR-TAF: